Time;durP1;ratioP1;P1;durP2;ratioP2;P2;SDS_P1;SDS_P2;PMS_P1;PMS_P2;Temp;Humidity;BMP_temperature;BMP_pressure;BME280_temperature;BME280_humidity;BME280_pressure;Samples;Min_cycle;Max_cycle;Signal;HPM_P1;HPM_P2
2024/01/18 00:01:32;;;;;;;0.77;0.45;;;8.40;99.90;;;7.71;100.00;94494.91;5006059;28;20033;-37
2024/01/18 00:03:59;;;;;;;2.03;0.57;;;8.40;99.90;;;7.67;100.00;94495.25;5011187;28;20080;-38
2024/01/18 00:06:25;;;;;;;0.60;0.60;;;8.30;99.90;;;7.63;100.00;94489.38;5014004;28;20032;-38
2024/01/18 00:08:51;;;;;;;0.77;0.57;;;8.30;99.90;;;7.59;100.00;94490.53;5009899;28;20032;-38
2024/01/18 00:11:17;;;;;;;1.02;0.52;;;8.30;99.90;;;7.53;100.00;94480.50;5007917;28;20312;-38
2024/01/18 00:13:44;;;;;;;1.52;0.50;;;8.20;99.90;;;7.41;100.00;94477.81;5014621;28;20034;-38
2024/01/18 00:16:09;;;;;;;1.02;0.50;;;8.20;99.90;;;7.46;100.00;94498.44;5009836;28;20123;-37
2024/01/18 00:18:35;;;;;;;0.45;0.45;;;8.10;99.90;;;7.47;100.00;94501.94;5014564;28;20502;-38
2024/01/18 00:21:01;;;;;;;0.50;0.50;;;8.10;99.90;;;7.35;100.00;94487.88;5009562;28;20033;-38
2024/01/18 00:23:26;;;;;;;0.52;0.40;;;8.10;99.90;;;7.36;100.00;94500.06;5009359;28;20107;-38
2024/01/18 00:25:52;;;;;;;0.40;0.40;;;8.00;99.90;;;7.32;100.00;94506.44;5010424;28;20045;-38
2024/01/18 00:28:18;;;;;;;2.15;0.60;;;8.00;99.90;;;7.07;100.00;94472.31;5014718;28;20115;-38
2024/01/18 00:30:44;;;;;;;1.02;0.50;;;7.90;99.90;;;7.18;100.00;94489.09;5008293;28;23861;-38
2024/01/18 00:33:09;;;;;;;0.63;0.60;;;7.90;99.90;;;7.11;100.00;94496.53;5012795;28;20034;-38
2024/01/18 00:35:35;;;;;;;1.23;0.55;;;7.80;99.90;;;7.02;100.00;94503.25;5012294;28;20436;-38
2024/01/18 00:38:02;;;;;;;1.27;0.70;;;7.70;99.90;;;6.97;100.00;94505.34;5011990;28;20048;-37
2024/01/18 00:40:28;;;;;;;0.70;0.50;;;7.60;99.90;;;6.90;100.00;94509.31;5006961;28;20053;-39
2024/01/18 00:42:54;;;;;;;0.52;0.45;;;7.60;99.90;;;6.79;100.00;94509.22;5012923;28;20033;-38
2024/01/18 00:45:19;;;;;;;1.42;0.50;;;7.50;99.90;;;6.69;100.00;94506.38;4993750;28;20044;-38
2024/01/18 00:47:45;;;;;;;0.80;0.40;;;7.40;99.90;;;6.55;100.00;94496.84;5008768;28;20042;-38
2024/01/18 00:50:11;;;;;;;2.78;0.77;;;7.30;99.90;;;6.58;100.00;94509.72;5010128;28;20041;-38
2024/01/18 00:52:36;;;;;;;0.75;0.43;;;7.30;99.90;;;6.61;100.00;94511.31;5008175;28;20071;-37
2024/01/18 00:55:02;;;;;;;1.25;0.50;;;7.30;99.90;;;6.61;100.00;94498.22;5013985;28;20026;-38
2024/01/18 00:57:28;;;;;;;2.33;0.65;;;7.30;99.90;;;6.72;100.00;94507.97;5008548;28;20047;-38
2024/01/18 00:59:54;;;;;;;1.00;0.70;;;7.40;99.90;;;6.63;100.00;94491.94;5013437;28;20270;-37
2024/01/18 01:02:20;;;;;;;1.52;0.70;;;7.40;99.90;;;6.68;100.00;94492.47;5009790;28;20135;-38
2024/01/18 01:04:46;;;;;;;0.98;0.60;;;7.50;99.90;;;6.72;100.00;94513.22;5010349;28;20048;-38
2024/01/18 01:07:12;;;;;;;1.10;0.60;;;7.40;99.90;;;6.62;100.00;94519.06;5011094;28;20161;-38
2024/01/18 01:09:37;;;;;;;0.57;0.50;;;7.30;99.90;;;6.50;100.00;94512.03;5011838;28;20243;-38
2024/01/18 01:12:03;;;;;;;1.27;0.73;;;7.20;99.90;;;6.41;100.00;94517.88;5011512;28;20084;-38
2024/01/18 01:14:29;;;;;;;1.42;0.70;;;7.10;99.90;;;6.32;100.00;94521.94;5014034;28;20025;-39
2024/01/18 01:16:55;;;;;;;1.25;0.85;;;7.10;99.90;;;6.24;100.00;94514.59;5012246;28;20041;-37
2024/01/18 01:19:21;;;;;;;0.75;0.65;;;7.00;99.90;;;6.13;100.00;94513.63;5014541;28;20033;-37
2024/01/18 01:21:47;;;;;;;1.48;0.57;;;6.90;99.90;;;5.94;100.00;94506.97;5012135;28;20062;-37
2024/01/18 01:24:13;;;;;;;1.10;0.70;;;6.80;99.90;;;5.91;100.00;94518.44;5016111;28;20067;-37
2024/01/18 01:26:38;;;;;;;1.27;0.50;;;6.70;99.90;;;5.84;100.00;94509.31;5014658;28;20064;-37
2024/01/18 01:29:05;;;;;;;0.70;0.60;;;6.60;99.90;;;5.92;100.00;94520.13;5014552;28;20366;-37
2024/01/18 01:31:30;;;;;;;0.90;0.50;;;6.60;99.90;;;6.00;100.00;94517.03;5012142;28;20037;-38
2024/01/18 01:33:56;;;;;;;2.80;0.50;;;6.70;99.90;;;6.08;100.00;94512.16;5014866;28;20044;-37
2024/01/18 01:36:22;;;;;;;0.73;0.50;;;6.80;99.90;;;6.22;100.00;94513.03;5011617;28;20033;-37
2024/01/18 01:38:48;;;;;;;0.65;0.60;;;6.90;99.90;;;6.23;100.00;94512.94;5001156;28;20029;-37
2024/01/18 01:41:14;;;;;;;1.02;0.50;;;7.00;99.90;;;6.31;100.00;94518.47;5013595;28;20037;-37
2024/01/18 01:43:59;;;;;;;0.55;0.55;;;7.00;99.90;;;6.38;100.00;94510.22;5022036;28;20510;-38
2024/01/18 01:46:26;;;;;;;0.82;0.50;;;7.10;99.90;;;6.45;100.00;94507.09;5014205;28;20025;-37
2024/01/18 01:48:59;;;;;;;0.80;0.47;;;7.20;99.90;;;6.52;100.00;94509.31;5013247;28;20855;-37
2024/01/18 01:51:26;;;;;;;0.60;0.50;;;7.20;99.90;;;6.56;100.00;94506.38;5011356;28;20025;-38
2024/01/18 01:53:53;;;;;;;1.67;0.45;;;7.30;99.90;;;6.68;100.00;94516.03;5010568;28;20128;-38
2024/01/18 01:56:20;;;;;;;1.35;0.55;;;7.40;99.90;;;6.74;100.00;94513.94;5014169;28;20117;-38
2024/01/18 01:58:49;;;;;;;1.40;0.70;;;7.40;99.90;;;6.84;100.00;94515.00;5011334;28;20029;-38
2024/01/18 02:01:15;;;;;;;0.90;0.35;;;7.50;99.90;;;6.87;100.00;94515.63;5018273;28;20025;-38
2024/01/18 02:03:41;;;;;;;1.45;0.70;;;7.50;99.90;;;6.73;100.00;94489.53;4989092;28;20030;-38
2024/01/18 02:06:06;;;;;;;0.82;0.60;;;7.60;99.90;;;6.93;100.00;94508.25;5016889;28;20894;-38
2024/01/18 02:08:32;;;;;;;0.88;0.50;;;7.60;99.90;;;6.90;100.00;94519.81;5014197;28;20201;-38
2024/01/18 02:10:59;;;;;;;1.27;0.50;;;7.60;99.90;;;6.91;100.00;94511.00;5013291;28;20523;-38
2024/01/18 02:13:26;;;;;;;0.63;0.60;;;7.60;99.90;;;6.94;100.00;94512.56;5014671;28;20445;-37
2024/01/18 02:15:51;;;;;;;1.38;0.55;;;7.60;99.90;;;6.96;100.00;94514.13;5012824;28;20450;-37
2024/01/18 02:18:17;;;;;;;0.90;0.60;;;7.60;99.90;;;6.95;100.00;94509.84;5012796;28;20033;-38
2024/01/18 02:20:43;;;;;;;0.60;0.50;;;7.70;99.90;;;7.01;100.00;94508.59;5010710;28;20037;-38
2024/01/18 02:23:09;;;;;;;1.50;0.73;;;7.70;99.90;;;7.05;100.00;94508.28;5014013;28;20033;-37
2024/01/18 02:25:36;;;;;;;1.63;0.50;;;7.70;99.90;;;7.05;100.00;94508.28;5016858;28;20125;-38
2024/01/18 02:28:02;;;;;;;0.73;0.40;;;7.70;99.90;;;7.06;100.00;94509.94;5008805;28;20150;-37
2024/01/18 02:30:27;;;;;;;1.20;0.50;;;7.80;99.90;;;7.13;100.00;94510.38;5012654;28;20034;-38
2024/01/18 02:32:53;;;;;;;1.50;0.47;;;7.80;99.90;;;7.16;100.00;94510.16;5010090;28;20374;-38
2024/01/18 02:35:20;;;;;;;2.20;0.70;;;7.90;99.90;;;7.27;100.00;94519.88;5009816;28;20486;-38
2024/01/18 02:37:46;;;;;;;0.50;0.40;;;8.00;99.90;;;7.23;100.00;94505.31;5008794;28;20065;-38
2024/01/18 02:40:12;;;;;;;1.00;0.52;;;8.00;99.90;;;7.39;100.00;94513.78;5005907;28;20044;-38
2024/01/18 02:42:38;;;;;;;1.85;0.40;;;8.10;99.90;;;7.43;100.00;94530.97;5007042;28;20033;-37
2024/01/18 02:45:05;;;;;;;1.30;0.50;;;8.10;99.90;;;7.38;100.00;94506.84;5015540;28;20037;-38
2024/01/18 02:47:30;;;;;;;0.50;0.43;;;8.10;99.90;;;7.52;100.00;94532.13;5010616;28;20444;-38
2024/01/18 02:49:57;;;;;;;0.55;0.50;;;8.20;99.90;;;7.50;100.00;94527.91;5014514;28;20034;-38
2024/01/18 02:52:22;;;;;;;0.63;0.50;;;8.20;99.90;;;7.54;100.00;94535.47;5010866;28;20057;-38
2024/01/18 02:54:48;;;;;;;1.23;0.30;;;8.20;99.90;;;7.54;100.00;94529.38;5015471;28;20486;-38
2024/01/18 02:57:13;;;;;;;0.88;0.50;;;8.20;99.90;;;7.54;100.00;94530.22;5016114;28;20037;-38
2024/01/18 02:59:39;;;;;;;2.55;0.60;;;8.20;99.90;;;7.53;100.00;94535.56;5013653;28;20065;-39
2024/01/18 03:02:05;;;;;;;0.40;0.40;;;8.20;99.90;;;7.51;100.00;94521.72;5014061;28;20044;-38
2024/01/18 03:04:31;;;;;;;1.10;0.43;;;8.20;99.90;;;7.49;100.00;94536.75;5013338;28;20071;-40
2024/01/18 03:06:57;;;;;;;0.75;0.45;;;8.20;99.90;;;7.47;100.00;94526.34;5013058;28;20030;-39
2024/01/18 03:09:23;;;;;;;0.73;0.40;;;8.10;99.90;;;7.36;100.00;94518.41;4981390;28;20026;-39
2024/01/18 03:11:49;;;;;;;1.23;0.40;;;8.10;99.90;;;7.42;100.00;94533.69;5011028;28;20091;-40
2024/01/18 03:14:14;;;;;;;0.50;0.30;;;8.10;99.90;;;7.35;100.00;94527.22;5014897;28;20040;-39
2024/01/18 03:16:42;;;;;;;0.68;0.30;;;8.10;99.90;;;7.39;100.00;94542.63;5013210;28;20053;-39
2024/01/18 03:19:12;;;;;;;2.42;0.50;;;8.10;99.90;;;7.35;100.00;94546.38;5011432;28;20060;-38
2024/01/18 03:21:39;;;;;;;0.55;0.43;;;8.00;99.90;;;7.33;100.00;94540.41;5015553;28;20461;-38
2024/01/18 03:24:06;;;;;;;0.70;0.40;;;8.00;99.90;;;7.31;100.00;94547.56;5011916;28;20033;-38
2024/01/18 03:26:32;;;;;;;1.10;0.30;;;8.00;99.90;;;7.26;100.00;94544.41;5013395;28;20182;-38
2024/01/18 03:28:58;;;;;;;2.63;1.30;;;8.00;99.90;;;7.15;100.00;94533.84;5011736;28;20417;-38
2024/01/18 03:31:23;;;;;;;2.42;1.60;;;7.90;99.90;;;7.07;100.00;94529.13;5010983;28;20045;-38
2024/01/18 03:33:49;;;;;;;2.80;2.00;;;7.80;99.90;;;7.03;100.00;94531.13;5012825;28;20044;-38
2024/01/18 03:36:15;;;;;;;3.15;2.63;;;7.70;99.90;;;6.93;100.00;94531.84;5013521;28;20033;-38
2024/01/18 03:38:40;;;;;;;3.10;2.30;;;7.60;99.90;;;6.85;100.00;94527.97;5012957;28;20026;-38
2024/01/18 03:41:06;;;;;;;2.20;1.83;;;7.60;99.90;;;6.76;100.00;94528.59;5011403;28;20061;-38
2024/01/18 03:43:32;;;;;;;2.33;1.60;;;7.50;99.90;;;6.69;100.00;94533.44;5005805;28;20430;-38
2024/01/18 03:45:57;;;;;;;1.98;1.40;;;7.40;99.90;;;6.59;100.00;94524.50;5004034;28;20041;-38
2024/01/18 03:48:23;;;;;;;2.70;2.10;;;7.30;99.90;;;6.50;100.00;94539.03;5009916;28;20405;-38
2024/01/18 03:50:49;;;;;;;3.55;2.60;;;7.20;99.90;;;6.40;100.00;94550.22;5013492;28;20026;-38
2024/01/18 03:53:14;;;;;;;5.50;4.40;;;7.10;99.90;;;6.24;100.00;94527.66;5013581;28;20036;-38
2024/01/18 03:55:41;;;;;;;6.90;5.50;;;7.10;99.90;;;6.34;100.00;94553.25;5016938;28;20385;-38
2024/01/18 03:58:07;;;;;;;7.25;5.55;;;7.00;99.90;;;6.03;100.00;94553.47;5027363;28;20056;-38
2024/01/18 04:00:32;;;;;;;7.07;5.90;;;6.90;99.90;;;5.98;100.00;94554.72;5017624;28;21036;-38
2024/01/18 04:02:58;;;;;;;6.80;5.10;;;6.70;99.90;;;5.71;100.00;94545.88;5015794;28;20033;-38
2024/01/18 04:05:24;;;;;;;6.95;5.28;;;6.60;99.90;;;5.56;100.00;94544.22;5012438;28;20341;-38
2024/01/18 04:07:50;;;;;;;6.13;5.00;;;6.40;99.90;;;5.40;100.00;94538.28;5006948;28;20224;-39
2024/01/18 04:10:15;;;;;;;8.13;6.05;;;6.20;99.90;;;5.24;100.00;94548.81;5013752;28;20021;-38
2024/01/18 04:12:42;;;;;;;6.20;4.75;;;6.10;99.90;;;5.15;100.00;94551.09;5016486;28;20033;-38
2024/01/18 04:15:09;;;;;;;6.10;4.60;;;5.90;99.90;;;5.08;100.00;94555.00;4993678;28;20052;-38
2024/01/18 04:17:34;;;;;;;7.38;4.68;;;5.90;99.90;;;5.00;100.00;94564.22;5017082;28;20037;-38
2024/01/18 04:20:00;;;;;;;5.55;4.30;;;5.80;99.90;;;4.96;100.00;94558.34;5015918;28;20536;-38
2024/01/18 04:22:26;;;;;;;4.18;3.75;;;5.80;99.90;;;4.81;100.00;94525.31;5015259;28;20072;-38
2024/01/18 04:24:52;;;;;;;4.38;3.80;;;5.60;99.90;;;4.79;100.00;94541.06;5012791;28;20041;-38
2024/01/18 04:27:18;;;;;;;4.75;3.78;;;5.60;99.90;;;4.66;100.00;94530.53;5010013;28;20056;-38
2024/01/18 04:29:44;;;;;;;4.18;3.47;;;5.50;99.90;;;4.57;100.00;94521.47;5015456;28;20473;-38
2024/01/18 04:32:10;;;;;;;4.43;3.53;;;5.40;99.90;;;4.53;100.00;94534.81;5013700;28;20033;-38
2024/01/18 04:34:37;;;;;;;3.45;3.15;;;5.40;99.90;;;4.49;100.00;94541.16;5014605;28;20028;-38
2024/01/18 04:37:03;;;;;;;4.53;3.25;;;5.30;99.90;;;4.40;100.00;94543.34;5014022;28;20037;-38
2024/01/18 04:39:29;;;;;;;4.90;3.50;;;5.20;99.90;;;4.25;100.00;94525.97;5013291;28;20083;-37
2024/01/18 04:41:54;;;;;;;3.80;3.17;;;5.10;99.90;;;4.12;100.00;94532.84;5013136;28;20552;-38
2024/01/18 04:44:20;;;;;;;4.13;3.40;;;5.00;99.90;;;4.06;100.00;94544.47;5007820;28;20022;-38
2024/01/18 04:46:46;;;;;;;5.00;3.72;;;4.90;99.90;;;4.00;100.00;94539.56;5008583;28;20025;-37
2024/01/18 04:49:11;;;;;;;3.95;3.42;;;4.80;99.90;;;3.98;100.00;94539.69;5006526;28;20080;-37
2024/01/18 04:51:39;;;;;;;5.20;3.65;;;4.80;99.90;;;3.98;100.00;94544.91;5015927;28;20040;-38
2024/01/18 04:54:05;;;;;;;4.65;3.53;;;4.80;99.90;;;3.95;100.00;94544.25;5010401;28;20045;-38
2024/01/18 04:56:31;;;;;;;3.78;3.20;;;4.80;99.90;;;3.97;100.00;94543.22;5014242;28;20067;-38
2024/01/18 04:58:56;;;;;;;3.78;3.38;;;4.80;99.90;;;3.99;100.00;94538.75;5014709;28;20516;-38
2024/01/18 05:01:22;;;;;;;4.20;3.45;;;4.80;99.90;;;3.94;100.00;94522.53;5017414;28;20072;-38
2024/01/18 05:03:48;;;;;;;3.78;3.30;;;4.90;99.90;;;4.05;100.00;94536.72;5013594;28;20259;-38
2024/01/18 05:06:13;;;;;;;3.85;3.30;;;4.90;99.90;;;4.06;100.00;94543.63;5016487;28;20045;-37
2024/01/18 05:08:39;;;;;;;4.60;3.50;;;4.90;99.90;;;4.08;100.00;94532.16;5011576;28;20041;-38
2024/01/18 05:11:06;;;;;;;5.25;3.58;;;4.90;99.90;;;4.10;100.00;94538.13;5013726;28;20029;-38
2024/01/18 05:13:32;;;;;;;3.95;3.50;;;4.90;99.90;;;4.08;100.00;94534.78;5010346;28;20061;-38
2024/01/18 05:15:59;;;;;;;5.60;4.18;;;4.90;99.90;;;4.08;100.00;94523.50;5011144;28;20466;-38
2024/01/18 05:18:25;;;;;;;6.53;4.07;;;4.90;99.90;;;4.13;100.00;94537.13;5028474;28;20114;-38
2024/01/18 05:20:50;;;;;;;5.28;4.00;;;4.90;99.90;;;4.12;100.00;94536.28;5016666;28;20482;-38
2024/01/18 05:23:16;;;;;;;6.68;4.50;;;4.90;99.90;;;4.12;100.00;94536.28;5019631;28;20057;-38
2024/01/18 05:26:15;;;;;;;6.65;4.45;;;4.90;99.90;;;4.12;100.00;94535.44;5016066;28;20462;-37
2024/01/18 05:28:41;;;;;;;6.95;5.05;;;4.90;99.90;;;4.00;100.00;94526.53;5016664;28;20033;-38
2024/01/18 05:31:07;;;;;;;7.18;4.68;;;4.90;99.90;;;4.10;100.00;94542.53;5012488;28;20037;-38
2024/01/18 05:33:33;;;;;;;5.10;4.38;;;4.90;99.90;;;4.05;100.00;94537.56;5018334;28;20743;-38
2024/01/18 05:35:58;;;;;;;9.23;4.90;;;4.90;99.90;;;4.01;100.00;94547.31;5009045;28;20049;-38
2024/01/18 05:38:24;;;;;;;6.32;4.47;;;4.80;99.90;;;3.98;100.00;94544.03;5016707;28;20028;-38
2024/01/18 05:40:50;;;;;;;5.57;4.35;;;4.80;99.90;;;3.93;100.00;94546.94;5020189;28;20029;-37
2024/01/18 05:43:16;;;;;;;7.22;5.15;;;4.80;99.90;;;3.78;100.00;94526.91;5015864;28;20934;-37
2024/01/18 05:45:42;;;;;;;7.55;5.38;;;4.70;99.90;;;3.86;100.00;94562.97;5019152;28;20098;-37
2024/01/18 05:48:08;;;;;;;6.72;5.40;;;4.70;99.90;;;3.82;100.00;94568.38;5014771;28;20441;-37
2024/01/18 05:50:33;;;;;;;7.07;5.15;;;4.70;99.90;;;3.82;100.00;94563.16;5013024;28;20033;-38
2024/01/18 05:52:59;;;;;;;8.15;5.25;;;4.60;99.90;;;3.74;100.00;94586.19;5014030;28;20029;-38
2024/01/18 05:55:25;;;;;;;15.48;5.70;;;4.60;99.90;;;3.72;100.00;94579.41;5016397;28;20055;-38
2024/01/18 05:57:50;;;;;;;7.10;5.38;;;4.60;99.90;;;3.78;100.00;94586.88;5011642;28;20695;-38
2024/01/18 06:00:16;;;;;;;9.82;4.90;;;4.60;99.90;;;3.63;100.00;94597.22;5013467;28;20029;-38
2024/01/18 06:02:42;;;;;;;5.63;3.85;;;4.50;99.90;;;3.57;100.00;94594.09;5016658;28;20119;-38
2024/01/18 06:05:08;;;;;;;7.55;3.85;;;4.40;99.90;;;3.28;100.00;94598.28;5014621;28;20107;-38
2024/01/18 06:07:33;;;;;;;3.10;2.50;;;4.20;99.90;;;3.10;100.00;94579.25;5013603;28;20136;-38
2024/01/18 06:10:02;;;;;;;4.28;2.40;;;4.10;99.90;;;2.82;100.00;94593.72;5009508;28;20405;-38
2024/01/18 06:12:28;;;;;;;2.97;2.28;;;3.80;99.90;;;2.68;100.00;94586.59;5011316;28;20416;-38
2024/01/18 06:14:54;;;;;;;3.28;1.90;;;3.60;99.90;;;2.50;100.00;94592.75;5002872;28;20026;-38
2024/01/18 06:17:20;;;;;;;2.40;1.95;;;3.50;99.90;;;2.29;100.00;94591.13;4991589;28;20033;-38
2024/01/18 06:19:45;;;;;;;8.05;4.10;;;3.30;99.90;;;2.11;100.00;94597.22;5012107;28;20394;-38
2024/01/18 06:22:11;;;;;;;2.63;1.83;;;3.10;99.90;;;2.16;100.00;94594.41;5013838;28;20040;-38
2024/01/18 06:24:37;;;;;;;2.53;2.08;;;3.10;99.90;;;2.10;100.00;94583.38;5015430;28;20041;-38
2024/01/18 06:27:03;;;;;;;3.38;2.20;;;3.00;99.90;;;2.07;100.00;94591.34;5013973;28;20398;-38
2024/01/18 06:29:30;;;;;;;3.08;2.20;;;3.00;99.90;;;1.88;100.00;94590.53;5012943;28;20053;-38
2024/01/18 06:31:56;;;;;;;2.63;1.95;;;2.90;99.90;;;1.88;100.00;94588.78;5010991;28;20087;-38
2024/01/18 06:34:21;;;;;;;2.03;1.80;;;2.80;99.90;;;1.82;100.00;94590.84;5013556;28;20458;-38
2024/01/18 06:36:47;;;;;;;2.40;2.00;;;2.80;99.90;;;1.76;100.00;94588.50;5014200;28;20040;-38
2024/01/18 06:39:15;;;;;;;2.67;1.85;;;2.70;99.90;;;1.68;100.00;94575.91;5015154;28;20390;-38
2024/01/18 06:41:41;;;;;;;3.35;2.10;;;2.70;99.90;;;1.63;100.00;94565.72;5016829;28;20094;-37
2024/01/18 06:44:07;;;;;;;4.38;2.67;;;2.60;99.90;;;1.67;100.00;94585.44;5007338;28;20120;-38
2024/01/18 06:46:33;;;;;;;2.67;2.00;;;2.60;99.90;;;1.69;100.00;94585.38;5010021;28;20123;-38
2024/01/18 06:49:36;;;;;;;3.65;2.10;;;2.60;99.90;;;1.72;100.00;94580.03;5010182;28;20077;-38
2024/01/18 06:52:02;;;;;;;5.25;2.40;;;2.60;99.90;;;1.64;100.00;94579.56;5008319;28;20065;-38
2024/01/18 06:54:27;;;;;;;3.67;2.00;;;2.60;99.90;;;1.63;100.00;94590.84;5002347;28;20030;-38
2024/01/18 06:56:53;;;;;;;11.38;2.55;;;2.60;99.90;;;1.60;100.00;94585.78;5016868;28;20040;-38
2024/01/18 06:59:19;;;;;;;3.25;2.20;;;2.60;99.90;;;1.62;100.00;94573.59;5011586;28;20037;-38
2024/01/18 07:01:44;;;;;;;4.72;2.15;;;2.60;99.90;;;1.61;100.00;94571.91;5014104;28;20026;-38
2024/01/18 07:04:11;;;;;;;5.20;2.30;;;2.60;99.90;;;1.60;100.00;94567.59;5018296;28;20034;-38
2024/01/18 07:06:36;;;;;;;2.97;1.80;;;2.60;99.90;;;1.66;100.00;94575.13;5020314;28;20037;-38
2024/01/18 07:09:02;;;;;;;3.42;2.10;;;2.60;99.90;;;1.68;100.00;94575.91;5015102;28;20449;-38
2024/01/18 07:11:28;;;;;;;2.95;1.70;;;2.60;99.90;;;1.60;100.00;94557.22;5017551;28;20064;-38
2024/01/18 07:13:53;;;;;;;3.10;1.90;;;2.60;99.90;;;1.61;100.00;94574.50;5017879;28;20044;-38
2024/01/18 07:16:19;;;;;;;21.08;1.95;;;2.60;99.90;;;1.60;100.00;94567.59;5018974;28;20037;-38
2024/01/18 07:18:45;;;;;;;2.97;1.70;;;2.60;99.90;;;1.56;100.00;94561.72;5016557;28;20616;-38
2024/01/18 07:21:10;;;;;;;6.40;2.30;;;2.50;99.90;;;1.60;100.00;94575.41;5017175;28;20482;-38
2024/01/18 07:23:36;;;;;;;6.35;2.08;;;2.60;99.90;;;1.64;100.00;94571.75;5012935;28;20041;-38
2024/01/18 07:26:02;;;;;;;2.38;1.80;;;2.60;99.90;;;1.62;100.00;94582.22;5017082;28;20034;-39
2024/01/18 07:28:28;;;;;;;2.58;1.88;;;2.60;99.90;;;1.58;100.00;94553.84;5016452;28;20446;-38
2024/01/18 07:30:53;;;;;;;3.13;1.55;;;2.60;99.90;;;1.64;100.00;94575.19;5016957;28;20053;-38
2024/01/18 07:33:20;;;;;;;4.75;1.90;;;2.60;99.90;;;1.64;100.00;94579.56;5018379;28;20037;-36
2024/01/18 07:35:46;;;;;;;5.20;2.58;;;2.60;99.90;;;1.59;100.00;94571.13;5017365;28;20052;-36
2024/01/18 07:38:13;;;;;;;5.50;2.03;;;2.60;99.90;;;1.54;100.00;94566.16;5014914;28;20482;-37
2024/01/18 07:40:39;;;;;;;4.97;2.33;;;2.50;99.90;;;1.52;100.00;94563.63;5016733;28;20033;-37
2024/01/18 07:43:05;;;;;;;6.00;2.83;;;2.50;99.90;;;1.54;100.00;94558.34;5018743;28;20095;-37
2024/01/18 07:45:32;;;;;;;5.10;2.33;;;2.50;99.90;;;1.54;100.00;94563.53;5017362;28;20036;-37
2024/01/18 07:47:57;;;;;;;3.78;2.33;;;2.50;99.90;;;1.48;100.00;94558.66;5012641;28;20041;-37
2024/01/18 07:50:23;;;;;;;4.20;2.58;;;2.50;99.90;;;1.48;100.00;94553.47;5017331;28;20417;-37
2024/01/18 07:52:49;;;;;;;8.32;2.90;;;2.50;99.90;;;1.53;100.00;94570.50;5017762;28;20025;-37
2024/01/18 07:55:15;;;;;;;4.20;2.67;;;2.50;99.90;;;1.55;100.00;94567.00;5017159;28;20029;-37
2024/01/18 07:57:41;;;;;;;3.80;2.70;;;2.50;99.90;;;1.51;100.00;94566.31;5018139;28;20099;-37
2024/01/18 08:00:08;;;;;;;3.60;2.40;;;2.50;99.90;;;1.57;100.00;94566.00;5013519;28;20033;-37
2024/01/18 08:02:34;;;;;;;5.35;2.80;;;2.50;99.90;;;1.57;100.00;94568.59;5012215;28;20034;-37
2024/01/18 08:05:00;;;;;;;4.90;3.00;;;2.50;99.90;;;1.55;100.00;94575.63;5016645;28;20049;-37
2024/01/18 08:07:25;;;;;;;4.40;2.85;;;2.50;99.90;;;1.65;100.00;94569.09;5017080;28;20721;-37
2024/01/18 08:09:51;;;;;;;24.77;3.88;;;2.60;99.90;;;1.60;100.00;94580.59;5016827;28;20390;-37
2024/01/18 08:12:17;;;;;;;6.70;3.20;;;2.60;99.90;;;1.60;100.00;94585.78;5014845;28;20048;-37
2024/01/18 08:14:43;;;;;;;4.63;2.80;;;2.60;99.90;;;1.62;100.00;94581.38;5014687;28;20411;-37
2024/01/18 08:17:09;;;;;;;3.25;2.65;;;2.50;99.90;;;1.57;100.00;94594.59;5014139;28;20044;-36
2024/01/18 08:19:36;;;;;;;4.57;3.17;;;2.50;99.90;;;1.51;100.00;94600.06;5013777;28;20193;-37
2024/01/18 08:22:02;;;;;;;5.68;2.83;;;2.50;99.90;;;1.46;100.00;94589.06;5012171;28;20030;-36
2024/01/18 08:24:28;;;;;;;5.10;3.30;;;2.40;99.90;;;1.41;100.00;94604.00;5014999;28;20044;-36
2024/01/18 08:26:54;;;;;;;4.30;2.97;;;2.40;99.90;;;1.28;100.00;94607.16;5017466;28;20033;-36
2024/01/18 08:29:19;;;;;;;5.93;2.97;;;2.30;99.90;;;1.22;100.00;94601.38;5011708;28;20045;-36
2024/01/18 08:31:45;;;;;;;4.35;2.65;;;2.30;99.90;;;1.37;100.00;94595.50;5021115;28;20056;-37
2024/01/18 08:34:12;;;;;;;5.18;2.72;;;2.20;99.90;;;1.04;100.00;94592.66;5019547;28;20572;-36
2024/01/18 08:36:37;;;;;;;3.63;2.55;;;2.20;99.90;;;1.28;100.00;94617.53;5020841;28;20037;-36
2024/01/18 08:39:03;;;;;;;4.10;2.72;;;2.20;99.90;;;1.13;100.00;94631.19;5019698;28;20050;-36
2024/01/18 08:41:29;;;;;;;4.60;3.00;;;2.10;99.90;;;1.01;100.00;94621.38;5019980;28;20060;-36
2024/01/18 08:43:54;;;;;;;4.43;3.10;;;2.00;99.90;;;0.90;100.00;94627.03;5018524;28;20057;-37
2024/01/18 08:46:20;;;;;;;3.47;2.67;;;2.00;99.90;;;1.04;100.00;94623.81;5001829;28;20041;-36
2024/01/18 08:48:46;;;;;;;3.67;2.78;;;2.00;99.90;;;0.81;100.00;94628.25;5010678;28;20517;-38
2024/01/18 08:51:14;;;;;;;4.38;2.58;;;1.90;99.90;;;0.81;100.00;94633.44;5013229;28;20702;-38
2024/01/18 08:53:40;;;;;;;4.55;3.20;;;1.90;99.90;;;0.76;100.00;94644.00;5020946;28;20443;-38
2024/01/18 08:56:07;;;;;;;4.97;2.90;;;1.80;99.90;;;0.70;100.00;94651.19;5021345;28;20036;-39
2024/01/18 08:58:33;;;;;;;3.58;2.55;;;1.80;99.90;;;0.65;100.00;94648.00;5021221;28;20060;-38
2024/01/18 09:00:59;;;;;;;4.32;2.80;;;1.70;99.90;;;0.67;100.00;94649.59;5020013;28;20477;-38
2024/01/18 09:03:24;;;;;;;4.28;3.17;;;1.70;99.90;;;0.66;100.00;94660.03;5020573;28;20540;-38
2024/01/18 09:05:50;;;;;;;5.10;2.90;;;1.70;99.90;;;0.59;100.00;94677.59;5019140;28;20092;-38
2024/01/18 09:08:16;;;;;;;5.60;2.70;;;1.60;99.90;;;0.62;100.00;94676.63;5012991;28;20060;-38
2024/01/18 09:10:42;;;;;;;3.63;2.63;;;1.60;99.90;;;0.55;100.00;94689.00;5017860;28;20500;-38
2024/01/18 09:13:07;;;;;;;3.28;2.28;;;1.60;99.90;;;0.42;100.00;94683.47;5020059;28;20067;-38
2024/01/18 09:15:35;;;;;;;3.40;2.47;;;1.50;99.90;;;0.44;100.00;94681.66;5019625;28;20033;-38
2024/01/18 09:18:01;;;;;;;3.05;1.95;;;1.50;99.90;;;0.34;100.00;94707.13;5017069;28;20570;-38
2024/01/18 09:20:26;;;;;;;3.90;2.40;;;1.40;99.90;;;0.23;100.00;94711.03;5012966;28;20044;-38
2024/01/18 09:22:52;;;;;;;3.90;2.42;;;1.30;99.90;;;0.22;100.00;94712.78;5015824;28;20029;-38
2024/01/18 09:25:18;;;;;;;4.07;2.58;;;1.30;99.90;;;0.28;100.00;94706.53;5019260;28;20037;-38
2024/01/18 09:27:44;;;;;;;3.13;2.30;;;1.20;99.90;;;0.10;100.00;94703.75;5018717;28;20116;-38
2024/01/18 09:30:10;;;;;;;3.47;2.13;;;1.30;99.90;;;0.26;100.00;94718.69;5018055;28;20061;-38
2024/01/18 09:32:36;;;;;;;4.30;2.42;;;1.20;99.90;;;0.21;100.00;94721.47;5019432;28;20026;-38
2024/01/18 09:35:05;;;;;;;5.28;2.10;;;1.30;99.90;;;0.19;100.00;94738.81;5021380;28;20505;-38
2024/01/18 09:37:31;;;;;;;3.88;1.85;;;1.20;99.90;;;0.07;100.00;94722.03;5014405;28;20490;-38
2024/01/18 09:39:57;;;;;;;4.30;1.67;;;1.20;99.90;;;-0.02;100.00;94715.44;5016974;28;20045;-38
2024/01/18 09:42:28;;;;;;;2.92;1.70;;;1.10;99.90;;;0.04;100.00;94739.44;5014356;28;20175;-38
2024/01/18 09:45:09;;;;;;;1.88;1.40;;;1.10;99.90;;;0.04;100.00;94749.81;5019307;28;20026;-38
2024/01/18 09:47:34;;;;;;;2.28;1.45;;;1.10;99.90;;;-0.06;100.00;94754.47;5017093;28;20039;-38
2024/01/18 09:50:01;;;;;;;1.88;1.40;;;1.10;99.90;;;0.01;100.00;94748.16;5019583;28;20034;-38
2024/01/18 09:52:26;;;;;;;2.30;1.55;;;1.10;99.90;;;-0.09;100.00;94758.03;5010886;28;20025;-38
2024/01/18 09:54:52;;;;;;;2.20;1.33;;;1.00;99.90;;;-0.17;100.00;94772.16;5018734;28;20087;-39
2024/01/18 09:57:30;;;;;;;2.60;1.42;;;0.90;99.90;;;-0.23;100.00;94781.00;5016457;28;20447;-38
2024/01/18 10:00:00;;;;;;;2.83;1.90;;;0.90;99.90;;;-0.27;100.00;94774.22;5018867;28;20417;-38
2024/01/18 10:02:29;;;;;;;2.33;1.67;;;0.90;99.90;;;-0.23;100.00;94779.25;5014475;28;20025;-38
2024/01/18 10:04:55;;;;;;;2.40;1.55;;;0.90;99.90;;;-0.16;100.00;94773.84;5010637;28;20427;-38
2024/01/18 10:07:21;;;;;;;2.65;1.42;;;0.90;99.90;;;-0.16;100.00;94805.78;5013757;28;20359;-38
2024/01/18 10:09:47;;;;;;;3.00;1.80;;;0.90;99.90;;;-0.17;100.00;94813.59;5017908;28;20029;-38
2024/01/18 10:12:13;;;;;;;2.95;1.67;;;0.90;99.90;;;-0.28;100.00;94832.97;5014258;28;20041;-38
2024/01/18 10:14:41;;;;;;;2.50;1.80;;;0.90;99.90;;;-0.28;100.00;94835.53;5016731;28;20399;-38
2024/01/18 10:17:07;;;;;;;3.00;1.80;;;0.80;99.90;;;-0.24;100.00;94841.47;5018353;28;20375;-38
2024/01/18 10:19:34;;;;;;;3.00;1.83;;;0.80;99.90;;;-0.20;100.00;94836.13;5019527;28;20474;-38
2024/01/18 10:22:00;;;;;;;4.75;1.65;;;0.80;99.90;;;-0.27;100.00;94847.63;5019715;28;20041;-38